Strona główna
METAR-TAF:

METAR-TAF

Lotnisko :

Port lotniczy Parnawa

Parnawa, Estonia

Szerokość geograficzna: 58-25-09N, Długość geograficzna: 024-28-22E, wysokość: 14 m

Aktualna obserwacja pogody

Raport powstał 54 minut temu, godzina 07:50 UTC
Wiatr 5 kt od północny wschód, zmienny między północ i wschodnio-południowy wschód
Temperatura 27°C
Wilgotność 54%
Ciśnienie 1013 hPa
Widzialność 10 km lub więcej
Brak chmur poniżej 1500 m i brak chmur cumulonimbus

METAR: EEPU 160750Z 05005KT 010V110 CAVOK 27/17 Q1013

czas: 11:44 (08:44 UTC)


TAF: brakujący

Obserwacja i prognoza pogody dla ponad 4000 lotnisk (raport METAR i TAF).

Dostępne stacje oznaczono żółtymi i czerwonymi punktami na mapie.

Najedź kursorem aby zobaczyć nazwę stacji.

Kliknij aby zobaczyć obserwacje i prognozy pogody.

Aby zmienić mapę: kliknij na zielony przycisk z czarnym krzyżykiem, aby powiększyć; na zielony przycisk z myślnikiem, aby pomniejszyć; na zielone strzałki, aby przejść do map sąsiednich.


METAR-TAF: